sensor_id;sensor_type;location;lat;lon;timestamp;P1;durP1;ratioP1;P2;durP2;ratioP2
6850;SDS011;3464;42.728;23.296;2022-12-18T00:01:30;18.93;;;9.50;;
6850;SDS011;3464;42.728;23.296;2022-12-18T00:03:58;18.97;;;9.90;;
6850;SDS011;3464;42.728;23.296;2022-12-18T00:06:25;18.67;;;9.60;;
6850;SDS011;3464;42.728;23.296;2022-12-18T00:08:53;19.40;;;10.10;;
6850;SDS011;3464;42.728;23.296;2022-12-18T00:11:21;19.97;;;9.50;;
6850;SDS011;3464;42.728;23.296;2022-12-18T00:13:47;18.83;;;10.03;;
6850;SDS011;3464;42.728;23.296;2022-12-18T00:16:15;24.60;;;10.17;;
6850;SDS011;3464;42.728;23.296;2022-12-18T00:18:40;19.53;;;10.30;;
6850;SDS011;3464;42.728;23.296;2022-12-18T00:21:07;18.67;;;9.53;;
6850;SDS011;3464;42.728;23.296;2022-12-18T00:23:34;17.87;;;9.40;;
6850;SDS011;3464;42.728;23.296;2022-12-18T00:26:01;21.10;;;10.07;;
6850;SDS011;3464;42.728;23.296;2022-12-18T00:28:27;23.10;;;11.20;;
6850;SDS011;3464;42.728;23.296;2022-12-18T00:33:34;19.10;;;9.63;;
6850;SDS011;3464;42.728;23.296;2022-12-18T00:36:02;19.13;;;10.33;;
6850;SDS011;3464;42.728;23.296;2022-12-18T00:38:27;18.97;;;10.20;;
6850;SDS011;3464;42.728;23.296;2022-12-18T00:40:54;20.30;;;11.00;;
6850;SDS011;3464;42.728;23.296;2022-12-18T00:43:20;20.57;;;11.23;;
6850;SDS011;3464;42.728;23.296;2022-12-18T00:45:47;19.70;;;10.80;;
6850;SDS011;3464;42.728;23.296;2022-12-18T00:48:14;20.00;;;11.07;;
6850;SDS011;3464;42.728;23.296;2022-12-18T00:50:40;19.40;;;10.53;;
6850;SDS011;3464;42.728;23.296;2022-12-18T00:53:06;21.90;;;11.37;;
6850;SDS011;3464;42.728;23.296;2022-12-18T00:55:33;22.83;;;11.10;;
6850;SDS011;3464;42.728;23.296;2022-12-18T00:57:59;19.17;;;11.00;;
6850;SDS011;3464;42.728;23.296;2022-12-18T01:00:26;20.57;;;11.00;;
6850;SDS011;3464;42.728;23.296;2022-12-18T01:02:52;19.90;;;11.27;;
6850;SDS011;3464;42.728;23.296;2022-12-18T01:05:21;20.10;;;11.10;;
6850;SDS011;3464;42.728;23.296;2022-12-18T01:07:47;20.50;;;10.70;;
6850;SDS011;3464;42.728;23.296;2022-12-18T01:10:15;20.90;;;10.93;;
6850;SDS011;3464;42.728;23.296;2022-12-18T01:12:41;21.10;;;11.30;;
6850;SDS011;3464;42.728;23.296;2022-12-18T01:15:09;20.30;;;11.67;;
6850;SDS011;3464;42.728;23.296;2022-12-18T01:17:35;21.37;;;11.80;;
6850;SDS011;3464;42.728;23.296;2022-12-18T01:20:02;21.87;;;11.70;;
6850;SDS011;3464;42.728;23.296;2022-12-18T01:22:28;23.20;;;12.30;;
6850;SDS011;3464;42.728;23.296;2022-12-18T01:24:55;22.90;;;12.60;;
6850;SDS011;3464;42.728;23.296;2022-12-18T01:27:21;22.00;;;11.20;;
6850;SDS011;3464;42.728;23.296;2022-12-18T01:29:48;20.97;;;11.47;;
6850;SDS011;3464;42.728;23.296;2022-12-18T01:32:14;21.50;;;11.57;;
6850;SDS011;3464;42.728;23.296;2022-12-18T01:34:42;20.60;;;11.93;;
6850;SDS011;3464;42.728;23.296;2022-12-18T01:37:08;23.20;;;12.30;;
6850;SDS011;3464;42.728;23.296;2022-12-18T01:39:36;21.60;;;11.43;;
6850;SDS011;3464;42.728;23.296;2022-12-18T01:42:02;24.50;;;12.30;;
6850;SDS011;3464;42.728;23.296;2022-12-18T01:47:07;20.20;;;11.03;;
6850;SDS011;3464;42.728;23.296;2022-12-18T01:49:33;20.97;;;11.03;;
6850;SDS011;3464;42.728;23.296;2022-12-18T01:52:00;20.63;;;11.43;;
6850;SDS011;3464;42.728;23.296;2022-12-18T01:54:27;20.80;;;10.90;;
6850;SDS011;3464;42.728;23.296;2022-12-18T01:56:54;21.07;;;11.10;;
6850;SDS011;3464;42.728;23.296;2022-12-18T01:59:21;21.20;;;10.83;;
6850;SDS011;3464;42.728;23.296;2022-12-18T02:01:49;19.60;;;10.63;;
6850;SDS011;3464;42.728;23.296;2022-12-18T02:04:26;19.87;;;11.07;;
6850;SDS011;3464;42.728;23.296;2022-12-18T02:06:57;21.10;;;11.30;;
6850;SDS011;3464;42.728;23.296;2022-12-18T02:09:25;19.53;;;10.43;;
6850;SDS011;3464;42.728;23.296;2022-12-18T02:11:56;22.00;;;11.73;;
6850;SDS011;3464;42.728;23.296;2022-12-18T02:14:26;20.00;;;10.63;;
6850;SDS011;3464;42.728;23.296;2022-12-18T02:16:59;20.87;;;12.17;;
6850;SDS011;3464;42.728;23.296;2022-12-18T02:22:39;20.87;;;11.13;;
6850;SDS011;3464;42.728;23.296;2022-12-18T02:25:17;19.60;;;10.87;;
6850;SDS011;3464;42.728;23.296;2022-12-18T02:27:45;20.13;;;10.87;;
6850;SDS011;3464;42.728;23.296;2022-12-18T02:30:12;20.07;;;10.17;;
6850;SDS011;3464;42.728;23.296;2022-12-18T02:32:40;16.60;;;8.90;;
6850;SDS011;3464;42.728;23.296;2022-12-18T02:35:05;17.93;;;9.40;;
6850;SDS011;3464;42.728;23.296;2022-12-18T02:37:32;19.87;;;9.63;;
6850;SDS011;3464;42.728;23.296;2022-12-18T02:40:00;18.40;;;9.30;;
6850;SDS011;3464;42.728;23.296;2022-12-18T02:42:26;18.60;;;9.80;;
6850;SDS011;3464;42.728;23.296;2022-12-18T02:44:53;17.83;;;9.27;;
6850;SDS011;3464;42.728;23.296;2022-12-18T02:47:21;19.63;;;9.33;;
6850;SDS011;3464;42.728;23.296;2022-12-18T02:49:58;20.00;;;9.60;;
6850;SDS011;3464;42.728;23.296;2022-12-18T02:53:46;18.17;;;10.00;;
6850;SDS011;3464;42.728;23.296;2022-12-18T02:55:30;18.43;;;9.50;;
6850;SDS011;3464;42.728;23.296;2022-12-18T02:58:17;17.93;;;9.97;;
6850;SDS011;3464;42.728;23.296;2022-12-18T03:00:49;21.60;;;10.47;;
6850;SDS011;3464;42.728;23.296;2022-12-18T03:03:24;18.60;;;9.97;;
6850;SDS011;3464;42.728;23.296;2022-12-18T03:05:50;20.30;;;10.37;;
6850;SDS011;3464;42.728;23.296;2022-12-18T03:08:20;18.17;;;10.27;;
6850;SDS011;3464;42.728;23.296;2022-12-18T03:10:49;20.70;;;11.23;;
6850;SDS011;3464;42.728;23.296;2022-12-18T03:13:16;23.10;;;10.87;;
6850;SDS011;3464;42.728;23.296;2022-12-18T03:15:45;19.43;;;10.90;;
6850;SDS011;3464;42.728;23.296;2022-12-18T03:18:11;19.47;;;10.70;;
6850;SDS011;3464;42.728;23.296;2022-12-18T03:20:36;20.50;;;11.40;;
6850;SDS011;3464;42.728;23.296;2022-12-18T03:23:06;23.53;;;12.33;;
6850;SDS011;3464;42.728;23.296;2022-12-18T03:25:32;22.33;;;10.90;;
6850;SDS011;3464;42.728;23.296;2022-12-18T03:27:59;20.10;;;10.37;;
6850;SDS011;3464;42.728;23.296;2022-12-18T03:30:26;20.50;;;9.00;;
6850;SDS011;3464;42.728;23.296;2022-12-18T03:32:56;18.40;;;9.77;;
6850;SDS011;3464;42.728;23.296;2022-12-18T03:35:21;20.67;;;10.40;;
6850;SDS011;3464;42.728;23.296;2022-12-18T03:37:47;18.87;;;9.93;;
6850;SDS011;3464;42.728;23.296;2022-12-18T03:40:14;18.10;;;9.80;;
6850;SDS011;3464;42.728;23.296;2022-12-18T03:42:45;21.07;;;9.87;;
6850;SDS011;3464;42.728;23.296;2022-12-18T03:45:16;20.30;;;10.20;;
6850;SDS011;3464;42.728;23.296;2022-12-18T03:47:43;19.37;;;9.90;;
6850;SDS011;3464;42.728;23.296;2022-12-18T03:50:13;20.30;;;10.20;;
6850;SDS011;3464;42.728;23.296;2022-12-18T03:53:14;20.20;;;11.40;;
6850;SDS011;3464;42.728;23.296;2022-12-18T03:55:20;22.70;;;11.70;;
6850;SDS011;3464;42.728;23.296;2022-12-18T03:57:47;21.07;;;10.83;;
6850;SDS011;3464;42.728;23.296;2022-12-18T04:00:14;21.90;;;11.27;;
6850;SDS011;3464;42.728;23.296;2022-12-18T04:02:48;22.40;;;12.30;;
6850;SDS011;3464;42.728;23.296;2022-12-18T04:05:17;22.50;;;12.80;;
6850;SDS011;3464;42.728;23.296;2022-12-18T04:07:45;24.03;;;12.97;;
6850;SDS011;3464;42.728;23.296;2022-12-18T04:10:11;23.13;;;12.10;;
6850;SDS011;3464;42.728;23.296;2022-12-18T04:12:38;21.80;;;12.43;;
6850;SDS011;3464;42.728;23.296;2022-12-18T04:15:04;23.57;;;13.60;;
6850;SDS011;3464;42.728;23.296;2022-12-18T04:17:31;24.37;;;13.70;;
6850;SDS011;3464;42.728;23.296;2022-12-18T04:19:58;26.00;;;14.77;;
6850;SDS011;3464;42.728;23.296;2022-12-18T04:22:25;23.93;;;13.90;;
6850;SDS011;3464;42.728;23.296;2022-12-18T04:24:52;27.20;;;14.50;;
6850;SDS011;3464;42.728;23.296;2022-12-18T04:27:19;23.67;;;13.97;;
6850;SDS011;3464;42.728;23.296;2022-12-18T04:29:46;24.97;;;13.23;;
6850;SDS011;3464;42.728;23.296;2022-12-18T04:32:13;22.10;;;12.63;;
6850;SDS011;3464;42.728;23.296;2022-12-18T04:34:40;30.43;;;14.30;;
6850;SDS011;3464;42.728;23.296;2022-12-18T04:37:06;24.67;;;14.27;;
6850;SDS011;3464;42.728;23.296;2022-12-18T04:39:33;24.17;;;12.80;;
6850;SDS011;3464;42.728;23.296;2022-12-18T04:42:00;26.50;;;14.30;;
6850;SDS011;3464;42.728;23.296;2022-12-18T04:44:26;28.90;;;14.30;;
6850;SDS011;3464;42.728;23.296;2022-12-18T04:46:53;26.00;;;14.80;;
6850;SDS011;3464;42.728;23.296;2022-12-18T04:49:20;26.17;;;14.00;;
6850;SDS011;3464;42.728;23.296;2022-12-18T04:51:46;25.93;;;13.80;;
6850;SDS011;3464;42.728;23.296;2022-12-18T04:54:13;26.53;;;14.33;;
6850;SDS011;3464;42.728;23.296;2022-12-18T04:56:40;27.90;;;15.57;;
6850;SDS011;3464;42.728;23.296;2022-12-18T04:59:08;27.17;;;14.77;;
6850;SDS011;3464;42.728;23.296;2022-12-18T05:01:35;28.27;;;14.57;;
6850;SDS011;3464;42.728;23.296;2022-12-18T05:04:02;26.47;;;14.97;;
6850;SDS011;3464;42.728;23.296;2022-12-18T05:06:28;29.10;;;15.23;;
6850;SDS011;3464;42.728;23.296;2022-12-18T05:08:56;29.07;;;14.97;;
6850;SDS011;3464;42.728;23.296;2022-12-18T05:11:25;28.30;;;15.33;;
6850;SDS011;3464;42.728;23.296;2022-12-18T05:13:52;29.33;;;15.03;;
6850;SDS011;3464;42.728;23.296;2022-12-18T05:16:21;29.20;;;16.40;;
6850;SDS011;3464;42.728;23.296;2022-12-18T05:18:47;28.93;;;15.90;;
6850;SDS011;3464;42.728;23.296;2022-12-18T05:21:14;29.57;;;16.23;;
6850;SDS011;3464;42.728;23.296;2022-12-18T05:23:40;34.20;;;17.30;;
6850;SDS011;3464;42.728;23.296;2022-12-18T05:26:07;31.90;;;17.10;;
6850;SDS011;3464;42.728;23.296;2022-12-18T05:28:34;32.03;;;18.47;;
6850;SDS011;3464;42.728;23.296;2022-12-18T05:31:01;33.00;;;17.70;;
6850;SDS011;3464;42.728;23.296;2022-12-18T05:33:29;31.07;;;16.30;;
6850;SDS011;3464;42.728;23.296;2022-12-18T05:35:55;35.23;;;17.53;;
6850;SDS011;3464;42.728;23.296;2022-12-18T05:38:24;31.57;;;17.47;;
6850;SDS011;3464;42.728;23.296;2022-12-18T05:40:51;31.80;;;16.70;;
6850;SDS011;3464;42.728;23.296;2022-12-18T05:43:18;38.87;;;18.50;;
6850;SDS011;3464;42.728;23.296;2022-12-18T05:45:45;32.17;;;17.40;;
6850;SDS011;3464;42.728;23.296;2022-12-18T05:48:11;33.30;;;18.30;;
6850;SDS011;3464;42.728;23.296;2022-12-18T05:50:38;33.53;;;16.93;;
6850;SDS011;3464;42.728;23.296;2022-12-18T05:53:04;33.83;;;18.17;;
6850;SDS011;3464;42.728;23.296;2022-12-18T05:55:33;35.93;;;17.27;;
6850;SDS011;3464;42.728;23.296;2022-12-18T05:58:01;33.47;;;17.50;;
6850;SDS011;3464;42.728;23.296;2022-12-18T06:00:27;34.10;;;18.10;;
6850;SDS011;3464;42.728;23.296;2022-12-18T06:02:54;35.83;;;18.80;;
6850;SDS011;3464;42.728;23.296;2022-12-18T06:05:21;34.03;;;17.60;;
6850;SDS011;3464;42.728;23.296;2022-12-18T06:07:47;30.30;;;17.10;;
6850;SDS011;3464;42.728;23.296;2022-12-18T06:10:14;30.23;;;16.60;;
6850;SDS011;3464;42.728;23.296;2022-12-18T06:12:41;31.50;;;16.70;;
6850;SDS011;3464;42.728;23.296;2022-12-18T06:15:08;30.63;;;15.97;;
6850;SDS011;3464;42.728;23.296;2022-12-18T06:17:35;29.80;;;16.50;;
6850;SDS011;3464;42.728;23.296;2022-12-18T06:20:01;30.67;;;16.47;;
6850;SDS011;3464;42.728;23.296;2022-12-18T06:22:30;30.03;;;15.30;;
6850;SDS011;3464;42.728;23.296;2022-12-18T06:24:55;28.87;;;15.50;;
6850;SDS011;3464;42.728;23.296;2022-12-18T06:27:22;29.37;;;16.40;;
6850;SDS011;3464;42.728;23.296;2022-12-18T06:29:50;29.50;;;16.33;;
6850;SDS011;3464;42.728;23.296;2022-12-18T06:32:16;30.23;;;16.60;;
6850;SDS011;3464;42.728;23.296;2022-12-18T06:34:43;32.40;;;17.90;;
6850;SDS011;3464;42.728;23.296;2022-12-18T06:37:09;32.67;;;17.43;;
6850;SDS011;3464;42.728;23.296;2022-12-18T06:39:36;32.40;;;17.50;;
6850;SDS011;3464;42.728;23.296;2022-12-18T06:42:03;31.80;;;17.27;;
6850;SDS011;3464;42.728;23.296;2022-12-18T06:44:30;32.03;;;16.90;;
6850;SDS011;3464;42.728;23.296;2022-12-18T06:46:56;31.70;;;17.57;;
6850;SDS011;3464;42.728;23.296;2022-12-18T06:49:23;29.40;;;16.57;;
6850;SDS011;3464;42.728;23.296;2022-12-18T06:51:50;34.47;;;17.60;;
6850;SDS011;3464;42.728;23.296;2022-12-18T06:54:16;28.33;;;16.10;;
6850;SDS011;3464;42.728;23.296;2022-12-18T06:56:44;33.57;;;17.03;;
6850;SDS011;3464;42.728;23.296;2022-12-18T06:59:09;29.60;;;16.33;;
6850;SDS011;3464;42.728;23.296;2022-12-18T07:01:37;28.07;;;16.40;;
6850;SDS011;3464;42.728;23.296;2022-12-18T07:04:04;29.57;;;16.43;;
6850;SDS011;3464;42.728;23.296;2022-12-18T07:06:31;33.77;;;17.67;;
6850;SDS011;3464;42.728;23.296;2022-12-18T07:08:58;32.90;;;18.03;;
6850;SDS011;3464;42.728;23.296;2022-12-18T07:11:26;37.53;;;15.23;;
6850;SDS011;3464;42.728;23.296;2022-12-18T07:13:52;28.80;;;15.77;;
6850;SDS011;3464;42.728;23.296;2022-12-18T07:16:20;25.83;;;15.03;;
6850;SDS011;3464;42.728;23.296;2022-12-18T07:18:47;30.50;;;16.60;;
6850;SDS011;3464;42.728;23.296;2022-12-18T07:21:15;31.27;;;14.97;;
6850;SDS011;3464;42.728;23.296;2022-12-18T07:23:40;32.07;;;16.60;;
6850;SDS011;3464;42.728;23.296;2022-12-18T07:26:09;31.67;;;17.20;;
6850;SDS011;3464;42.728;23.296;2022-12-18T07:28:36;31.33;;;17.60;;
6850;SDS011;3464;42.728;23.296;2022-12-18T07:31:04;32.70;;;16.70;;
6850;SDS011;3464;42.728;23.296;2022-12-18T07:33:30;32.20;;;17.90;;
6850;SDS011;3464;42.728;23.296;2022-12-18T07:35:58;33.80;;;17.33;;
6850;SDS011;3464;42.728;23.296;2022-12-18T07:38:23;31.63;;;17.13;;
6850;SDS011;3464;42.728;23.296;2022-12-18T07:40:51;34.27;;;18.47;;
6850;SDS011;3464;42.728;23.296;2022-12-18T07:43:17;30.90;;;17.03;;
6850;SDS011;3464;42.728;23.296;2022-12-18T07:45:44;33.97;;;17.70;;
6850;SDS011;3464;42.728;23.296;2022-12-18T07:48:11;30.40;;;17.17;;
6850;SDS011;3464;42.728;23.296;2022-12-18T07:50:37;32.87;;;18.00;;
6850;SDS011;3464;42.728;23.296;2022-12-18T07:53:04;34.80;;;17.80;;
6850;SDS011;3464;42.728;23.296;2022-12-18T07:55:31;32.87;;;18.00;;
6850;SDS011;3464;42.728;23.296;2022-12-18T07:57:59;34.90;;;18.80;;
6850;SDS011;3464;42.728;23.296;2022-12-18T08:00:24;32.67;;;18.87;;
6850;SDS011;3464;42.728;23.296;2022-12-18T08:02:51;32.63;;;18.53;;
6850;SDS011;3464;42.728;23.296;2022-12-18T08:05:17;33.97;;;19.03;;
6850;SDS011;3464;42.728;23.296;2022-12-18T08:07:44;36.90;;;19.70;;
6850;SDS011;3464;42.728;23.296;2022-12-18T08:10:10;35.13;;;19.43;;
6850;SDS011;3464;42.728;23.296;2022-12-18T08:12:37;34.77;;;19.50;;
6850;SDS011;3464;42.728;23.296;2022-12-18T08:15:04;32.90;;;18.20;;
6850;SDS011;3464;42.728;23.296;2022-12-18T08:17:32;36.50;;;19.37;;
6850;SDS011;3464;42.728;23.296;2022-12-18T08:19:58;33.60;;;18.10;;
6850;SDS011;3464;42.728;23.296;2022-12-18T08:22:25;32.70;;;17.40;;
6850;SDS011;3464;42.728;23.296;2022-12-18T08:24:51;35.47;;;18.80;;
6850;SDS011;3464;42.728;23.296;2022-12-18T08:27:18;36.07;;;18.37;;
6850;SDS011;3464;42.728;23.296;2022-12-18T08:29:45;31.57;;;17.17;;
6850;SDS011;3464;42.728;23.296;2022-12-18T08:32:11;30.83;;;17.00;;
6850;SDS011;3464;42.728;23.296;2022-12-18T08:34:38;31.47;;;17.90;;
6850;SDS011;3464;42.728;23.296;2022-12-18T08:37:04;31.97;;;17.20;;
6850;SDS011;3464;42.728;23.296;2022-12-18T08:39:31;33.57;;;17.90;;
6850;SDS011;3464;42.728;23.296;2022-12-18T08:41:57;33.40;;;16.07;;
6850;SDS011;3464;42.728;23.296;2022-12-18T08:44:30;32.13;;;16.90;;
6850;SDS011;3464;42.728;23.296;2022-12-18T08:47:02;31.93;;;16.97;;
6850;SDS011;3464;42.728;23.296;2022-12-18T08:49:29;33.33;;;16.30;;
6850;SDS011;3464;42.728;23.296;2022-12-18T08:51:56;32.57;;;16.30;;
6850;SDS011;3464;42.728;23.296;2022-12-18T08:54:23;31.70;;;17.20;;
6850;SDS011;3464;42.728;23.296;2022-12-18T08:56:50;34.50;;;18.37;;
6850;SDS011;3464;42.728;23.296;2022-12-18T08:59:16;29.63;;;16.40;;
6850;SDS011;3464;42.728;23.296;2022-12-18T09:01:44;31.93;;;16.97;;
6850;SDS011;3464;42.728;23.296;2022-12-18T09:04:10;36.73;;;19.73;;
6850;SDS011;3464;42.728;23.296;2022-12-18T09:06:38;33.60;;;17.60;;
6850;SDS011;3464;42.728;23.296;2022-12-18T09:09:06;34.10;;;18.43;;
6850;SDS011;3464;42.728;23.296;2022-12-18T09:11:34;30.80;;;16.07;;
6850;SDS011;3464;42.728;23.296;2022-12-18T09:14:01;32.80;;;17.17;;
6850;SDS011;3464;42.728;23.296;2022-12-18T09:16:31;30.60;;;15.60;;
6850;SDS011;3464;42.728;23.296;2022-12-18T09:18:58;30.13;;;15.90;;
6850;SDS011;3464;42.728;23.296;2022-12-18T09:21:26;32.37;;;17.10;;
6850;SDS011;3464;42.728;23.296;2022-12-18T09:23:51;30.40;;;15.87;;
6850;SDS011;3464;42.728;23.296;2022-12-18T09:26:18;35.20;;;17.77;;
6850;SDS011;3464;42.728;23.296;2022-12-18T09:28:44;34.07;;;17.57;;
6850;SDS011;3464;42.728;23.296;2022-12-18T09:31:12;30.87;;;16.37;;
6850;SDS011;3464;42.728;23.296;2022-12-18T09:33:39;33.73;;;17.23;;
6850;SDS011;3464;42.728;23.296;2022-12-18T09:36:06;34.87;;;17.07;;
6850;SDS011;3464;42.728;23.296;2022-12-18T09:38:33;32.93;;;17.40;;
6850;SDS011;3464;42.728;23.296;2022-12-18T09:41:00;28.20;;;15.40;;
6850;SDS011;3464;42.728;23.296;2022-12-18T09:43:28;38.33;;;17.63;;
6850;SDS011;3464;42.728;23.296;2022-12-18T09:45:56;32.07;;;15.87;;
6850;SDS011;3464;42.728;23.296;2022-12-18T09:48:23;28.70;;;15.73;;
6850;SDS011;3464;42.728;23.296;2022-12-18T09:50:50;35.40;;;16.00;;
6850;SDS011;3464;42.728;23.296;2022-12-18T09:53:19;31.63;;;15.33;;
6850;SDS011;3464;42.728;23.296;2022-12-18T09:55:46;32.10;;;15.30;;
6850;SDS011;3464;42.728;23.296;2022-12-18T09:58:16;30.67;;;16.40;;
6850;SDS011;3464;42.728;23.296;2022-12-18T10:00:44;32.27;;;15.07;;
6850;SDS011;3464;42.728;23.296;2022-12-18T10:03:12;34.20;;;16.13;;
6850;SDS011;3464;42.728;23.296;2022-12-18T10:05:42;32.43;;;15.50;;
6850;SDS011;3464;42.728;23.296;2022-12-18T10:08:18;32.33;;;16.73;;
6850;SDS011;3464;42.728;23.296;2022-12-18T10:10:48;30.63;;;16.10;;
6850;SDS011;3464;42.728;23.296;2022-12-18T10:17:10;28.70;;;14.73;;
6850;SDS011;3464;42.728;23.296;2022-12-18T10:18:47;27.00;;;14.07;;
6850;SDS011;3464;42.728;23.296;2022-12-18T10:21:15;30.13;;;14.80;;
6850;SDS011;3464;42.728;23.296;2022-12-18T10:23:59;27.97;;;14.33;;
6850;SDS011;3464;42.728;23.296;2022-12-18T10:26:26;30.27;;;15.30;;
6850;SDS011;3464;42.728;23.296;2022-12-18T10:28:53;28.60;;;14.50;;
6850;SDS011;3464;42.728;23.296;2022-12-18T10:31:22;32.17;;;14.07;;
6850;SDS011;3464;42.728;23.296;2022-12-18T10:33:49;30.83;;;14.47;;
6850;SDS011;3464;42.728;23.296;2022-12-18T10:36:16;31.63;;;14.50;;
6850;SDS011;3464;42.728;23.296;2022-12-18T10:38:42;29.60;;;14.23;;
6850;SDS011;3464;42.728;23.296;2022-12-18T10:44:10;32.20;;;16.60;;
6850;SDS011;3464;42.728;23.296;2022-12-18T10:46:26;30.03;;;15.50;;
6850;SDS011;3464;42.728;23.296;2022-12-18T10:48:53;35.40;;;16.57;;
6850;SDS011;3464;42.728;23.296;2022-12-18T10:51:22;30.37;;;15.50;;
6850;SDS011;3464;42.728;23.296;2022-12-18T10:53:51;31.63;;;15.40;;
6850;SDS011;3464;42.728;23.296;2022-12-18T10:56:19;30.37;;;15.10;;
6850;SDS011;3464;42.728;23.296;2022-12-18T10:58:43;31.90;;;14.80;;
6850;SDS011;3464;42.728;23.296;2022-12-18T11:01:11;30.23;;;15.00;;
6850;SDS011;3464;42.728;23.296;2022-12-18T11:03:40;28.00;;;14.50;;
6850;SDS011;3464;42.728;23.296;2022-12-18T11:06:10;28.70;;;14.80;;
6850;SDS011;3464;42.728;23.296;2022-12-18T11:08:37;29.00;;;13.83;;
6850;SDS011;3464;42.728;23.296;2022-12-18T11:11:04;31.07;;;13.90;;
6850;SDS011;3464;42.728;23.296;2022-12-18T11:13:30;30.83;;;14.93;;
6850;SDS011;3464;42.728;23.296;2022-12-18T11:15:56;33.17;;;14.53;;
6850;SDS011;3464;42.728;23.296;2022-12-18T11:18:25;33.13;;;15.50;;
6850;SDS011;3464;42.728;23.296;2022-12-18T11:20:59;31.07;;;14.53;;
6850;SDS011;3464;42.728;23.296;2022-12-18T11:23:35;29.07;;;14.37;;
6850;SDS011;3464;42.728;23.296;2022-12-18T11:26:02;30.27;;;15.63;;
6850;SDS011;3464;42.728;23.296;2022-12-18T11:28:29;31.13;;;16.07;;
6850;SDS011;3464;42.728;23.296;2022-12-18T11:31:12;30.10;;;14.83;;
6850;SDS011;3464;42.728;23.296;2022-12-18T11:33:39;31.73;;;15.60;;
6850;SDS011;3464;42.728;23.296;2022-12-18T11:36:05;30.77;;;15.10;;
6850;SDS011;3464;42.728;23.296;2022-12-18T11:38:33;30.73;;;14.17;;
6850;SDS011;3464;42.728;23.296;2022-12-18T11:41:04;32.67;;;14.90;;
6850;SDS011;3464;42.728;23.296;2022-12-18T11:43:34;27.27;;;14.27;;
6850;SDS011;3464;42.728;23.296;2022-12-18T11:46:17;29.23;;;14.57;;
6850;SDS011;3464;42.728;23.296;2022-12-18T11:48:45;32.93;;;16.33;;
6850;SDS011;3464;42.728;23.296;2022-12-18T11:51:14;30.10;;;15.33;;
6850;SDS011;3464;42.728;23.296;2022-12-18T11:53:38;31.77;;;15.63;;
6850;SDS011;3464;42.728;23.296;2022-12-18T11:58:51;32.20;;;15.80;;
6850;SDS011;3464;42.728;23.296;2022-12-18T12:01:31;30.40;;;15.00;;
6850;SDS011;3464;42.728;23.296;2022-12-18T12:04:15;33.63;;;15.23;;
6850;SDS011;3464;42.728;23.296;2022-12-18T12:06:51;31.63;;;16.40;;
6850;SDS011;3464;42.728;23.296;2022-12-18T12:09:22;33.03;;;15.60;;
6850;SDS011;3464;42.728;23.296;2022-12-18T12:11:58;31.03;;;15.30;;
6850;SDS011;3464;42.728;23.296;2022-12-18T12:17:37;32.97;;;17.23;;
6850;SDS011;3464;42.728;23.296;2022-12-18T12:20:08;33.67;;;17.30;;
6850;SDS011;3464;42.728;23.296;2022-12-18T12:23:01;33.30;;;16.90;;
6850;SDS011;3464;42.728;23.296;2022-12-18T12:25:55;34.33;;;17.00;;
6850;SDS011;3464;42.728;23.296;2022-12-18T12:28:22;34.40;;;16.70;;
6850;SDS011;3464;42.728;23.296;2022-12-18T12:33:33;34.13;;;17.13;;
6850;SDS011;3464;42.728;23.296;2022-12-18T12:36:00;34.53;;;15.20;;
6850;SDS011;3464;42.728;23.296;2022-12-18T12:38:41;33.87;;;15.50;;
6850;SDS011;3464;42.728;23.296;2022-12-18T12:41:08;30.97;;;16.00;;
6850;SDS011;3464;42.728;23.296;2022-12-18T12:43:35;39.40;;;18.73;;
6850;SDS011;3464;42.728;23.296;2022-12-18T12:46:05;38.43;;;19.37;;
6850;SDS011;3464;42.728;23.296;2022-12-18T12:48:33;35.83;;;18.40;;
6850;SDS011;3464;42.728;23.296;2022-12-18T12:51:01;43.63;;;22.13;;
6850;SDS011;3464;42.728;23.296;2022-12-18T12:53:29;98.03;;;37.90;;
6850;SDS011;3464;42.728;23.296;2022-12-18T12:55:55;32.90;;;16.30;;
6850;SDS011;3464;42.728;23.296;2022-12-18T12:58:26;31.83;;;14.47;;
6850;SDS011;3464;42.728;23.296;2022-12-18T13:00:58;28.97;;;13.27;;
6850;SDS011;3464;42.728;23.296;2022-12-18T13:03:31;30.00;;;15.50;;
6850;SDS011;3464;42.728;23.296;2022-12-18T13:06:15;31.83;;;16.83;;
6850;SDS011;3464;42.728;23.296;2022-12-18T13:14:00;31.80;;;16.20;;
6850;SDS011;3464;42.728;23.296;2022-12-18T13:16:27;30.40;;;15.33;;
6850;SDS011;3464;42.728;23.296;2022-12-18T13:18:54;31.00;;;16.10;;
6850;SDS011;3464;42.728;23.296;2022-12-18T13:21:28;32.43;;;15.67;;
6850;SDS011;3464;42.728;23.296;2022-12-18T13:23:56;32.00;;;16.17;;
6850;SDS011;3464;42.728;23.296;2022-12-18T13:26:30;30.43;;;15.20;;
6850;SDS011;3464;42.728;23.296;2022-12-18T13:28:57;30.67;;;15.83;;
6850;SDS011;3464;42.728;23.296;2022-12-18T13:31:59;32.87;;;16.53;;
6850;SDS011;3464;42.728;23.296;2022-12-18T13:34:24;32.37;;;16.10;;
6850;SDS011;3464;42.728;23.296;2022-12-18T13:36:51;29.53;;;15.50;;
6850;SDS011;3464;42.728;23.296;2022-12-18T13:39:21;32.73;;;16.10;;
6850;SDS011;3464;42.728;23.296;2022-12-18T13:41:49;31.13;;;15.40;;
6850;SDS011;3464;42.728;23.296;2022-12-18T13:44:33;34.40;;;15.53;;
6850;SDS011;3464;42.728;23.296;2022-12-18T13:47:00;31.17;;;15.53;;
6850;SDS011;3464;42.728;23.296;2022-12-18T13:49:31;29.80;;;15.80;;
6850;SDS011;3464;42.728;23.296;2022-12-18T13:54:55;30.03;;;15.17;;
6850;SDS011;3464;42.728;23.296;2022-12-18T13:57:28;31.80;;;14.80;;
6850;SDS011;3464;42.728;23.296;2022-12-18T13:59:54;27.07;;;13.83;;
6850;SDS011;3464;42.728;23.296;2022-12-18T14:02:21;28.47;;;14.17;;
6850;SDS011;3464;42.728;23.296;2022-12-18T14:04:47;31.57;;;15.47;;
6850;SDS011;3464;42.728;23.296;2022-12-18T14:07:14;29.10;;;15.40;;
6850;SDS011;3464;42.728;23.296;2022-12-18T14:09:42;27.07;;;13.80;;
6850;SDS011;3464;42.728;23.296;2022-12-18T14:12:17;29.70;;;14.13;;
6850;SDS011;3464;42.728;23.296;2022-12-18T14:14:52;29.90;;;15.03;;
6850;SDS011;3464;42.728;23.296;2022-12-18T14:17:19;28.50;;;14.83;;
6850;SDS011;3464;42.728;23.296;2022-12-18T14:19:48;32.30;;;15.07;;
6850;SDS011;3464;42.728;23.296;2022-12-18T14:22:22;31.70;;;16.13;;
6850;SDS011;3464;42.728;23.296;2022-12-18T14:25:04;34.43;;;15.97;;
6850;SDS011;3464;42.728;23.296;2022-12-18T14:27:20;30.37;;;15.20;;
6850;SDS011;3464;42.728;23.296;2022-12-18T14:29:48;29.93;;;15.10;;
6850;SDS011;3464;42.728;23.296;2022-12-18T14:32:17;31.33;;;15.17;;
6850;SDS011;3464;42.728;23.296;2022-12-18T14:34:46;30.40;;;14.90;;
6850;SDS011;3464;42.728;23.296;2022-12-18T14:37:16;27.03;;;13.30;;
6850;SDS011;3464;42.728;23.296;2022-12-18T14:39:51;28.10;;;14.03;;
6850;SDS011;3464;42.728;23.296;2022-12-18T14:42:10;29.00;;;13.93;;
6850;SDS011;3464;42.728;23.296;2022-12-18T14:44:35;27.63;;;13.03;;
6850;SDS011;3464;42.728;23.296;2022-12-18T14:47:01;29.80;;;14.97;;
6850;SDS011;3464;42.728;23.296;2022-12-18T14:49:30;27.37;;;13.57;;
6850;SDS011;3464;42.728;23.296;2022-12-18T14:52:28;27.20;;;13.27;;
6850;SDS011;3464;42.728;23.296;2022-12-18T14:54:56;28.47;;;13.17;;
6850;SDS011;3464;42.728;23.296;2022-12-18T14:57:24;30.27;;;15.23;;
6850;SDS011;3464;42.728;23.296;2022-12-18T14:59:51;36.13;;;15.13;;
6850;SDS011;3464;42.728;23.296;2022-12-18T15:02:23;29.90;;;14.40;;
6850;SDS011;3464;42.728;23.296;2022-12-18T15:07:39;30.50;;;14.73;;
6850;SDS011;3464;42.728;23.296;2022-12-18T15:10:07;26.83;;;14.40;;
6850;SDS011;3464;42.728;23.296;2022-12-18T15:12:43;26.43;;;13.47;;
6850;SDS011;3464;42.728;23.296;2022-12-18T15:17:47;31.20;;;15.00;;
6850;SDS011;3464;42.728;23.296;2022-12-18T15:20:14;29.63;;;15.10;;